Time;durP1;ratioP1;P1;durP2;ratioP2;P2;SDS_P1;SDS_P2;PMS_P1;PMS_P2;Temp;Humidity;BMP_temperature;BMP_pressure;BME280_temperature;BME280_humidity;BME280_pressure;Samples;Min_cycle;Max_cycle;Signal;HPM_P1;HPM_P2
2022/04/14 11:32:41;;;;;;;6.70;5.97;;;;;;;;;;6200542;23;20060;-81
2022/04/14 11:35:16;;;;;;;7.28;6.05;;;;;;;;;;6216899;23;20036;-80
2022/04/14 11:37:46;;;;;;;5.88;5.22;;;;;;;;;;6216838;23;20008;-81
2022/04/14 11:40:17;;;;;;;9.10;5.82;;;;;;;;;;6216802;23;20050;-80
2022/04/14 11:42:48;;;;;;;9.50;6.38;;;;;;;;;;6216598;23;20036;-79
2022/04/14 11:45:14;;;;;;;14.65;10.55;;;;;;;;;;6216967;23;20004;-78
2022/04/14 16:45:57;;;;;;;9.82;4.18;;;;;;;;;;6189732;23;20017;-90
2022/04/14 16:48:22;;;;;;;9.20;4.75;;;;;;;;;;6218633;23;20013;-94
2022/04/14 16:50:48;;;;;;;9.90;4.90;;;;;;;;;;6193520;23;20048;-91
2022/04/14 16:53:13;;;;;;;14.32;4.65;;;;;;;;;;6193375;23;20095;-91
2022/04/14 16:55:39;;;;;;;7.90;4.88;;;;;;;;;;6220112;23;20003;-90
2022/04/14 16:58:04;;;;;;;8.68;5.30;;;;;;;;;;6193846;23;19999;-91
2022/04/14 17:00:30;;;;;;;8.27;4.97;;;;;;;;;;6192800;23;20004;-89
2022/04/14 17:02:55;;;;;;;9.30;4.40;;;;;;;;;;6193149;23;20463;-89
2022/04/14 17:05:20;;;;;;;11.43;6.40;;;;;;;;;;6191975;23;20155;-91
2022/04/14 17:07:46;;;;;;;12.15;6.38;;;;;;;;;;6220325;23;20000;-92
2022/04/14 17:10:11;;;;;;;13.02;6.65;;;;;;;;;;6193040;23;20364;-88
2022/04/14 17:12:37;;;;;;;11.05;7.97;;;;;;;;;;6219019;23;20033;-91
2022/04/14 17:15:05;;;;;;;10.40;5.95;;;;;;;;;;6218642;23;20024;-87
2022/04/14 17:17:31;;;;;;;8.27;5.63;;;;;;;;;;6218135;23;20004;-92
2022/04/14 17:19:57;;;;;;;9.10;5.78;;;;;;;;;;6192167;23;20024;-90
2022/04/14 17:25:06;;;;;;;7.95;4.72;;;;;;;;;;6218087;23;20015;-85
2022/04/14 17:27:33;;;;;;;7.90;4.85;;;;;;;;;;6218227;23;20324;-89
2022/04/14 17:29:59;;;;;;;8.75;4.70;;;;;;;;;;6191082;23;20478;-87
2022/04/14 17:32:25;;;;;;;7.13;5.00;;;;;;;;;;6191099;23;20000;-87
2022/04/14 17:34:50;;;;;;;10.15;5.47;;;;;;;;;;6191328;23;20008;-89
2022/04/14 17:37:16;;;;;;;9.80;5.22;;;;;;;;;;6191219;23;20388;-90
2022/04/14 17:39:44;;;;;;;11.32;6.20;;;;;;;;;;6191170;23;20016;-89
2022/04/14 17:42:10;;;;;;;12.02;5.50;;;;;;;;;;6191098;23;20009;-88
2022/04/14 17:44:35;;;;;;;7.78;5.05;;;;;;;;;;6190986;23;20324;-89
2022/04/14 17:47:00;;;;;;;10.38;5.28;;;;;;;;;;6217434;23;20446;-90
2022/04/14 17:49:28;;;;;;;8.93;5.13;;;;;;;;;;6217406;23;20459;-90
2022/04/14 17:51:54;;;;;;;11.23;5.00;;;;;;;;;;6190844;23;20001;-88
2022/04/14 17:54:19;;;;;;;7.22;4.93;;;;;;;;;;6216709;23;20005;-89
2022/04/14 17:56:45;;;;;;;14.13;7.43;;;;;;;;;;6217450;23;20009;-90
2022/04/14 17:59:11;;;;;;;9.35;4.93;;;;;;;;;;6191405;23;20078;-89
2022/04/14 18:01:37;;;;;;;7.43;4.85;;;;;;;;;;6217860;23;20004;-88
2022/04/14 18:04:03;;;;;;;10.98;5.70;;;;;;;;;;6217558;23;20492;-89
2022/04/14 18:06:31;;;;;;;9.40;5.28;;;;;;;;;;6217765;23;20004;-88
2022/04/14 18:08:57;;;;;;;11.25;6.43;;;;;;;;;;6217842;23;20007;-89
2022/04/14 18:11:23;;;;;;;10.63;6.25;;;;;;;;;;6191269;23;19997;-93
2022/04/14 18:13:49;;;;;;;10.38;5.50;;;;;;;;;;6192857;23;20683;-89
2022/04/14 18:16:14;;;;;;;10.38;5.53;;;;;;;;;;6191618;23;20004;-92
2022/04/14 18:18:40;;;;;;;8.57;5.38;;;;;;;;;;6190980;23;20008;-87
2022/04/14 18:21:07;;;;;;;12.70;6.60;;;;;;;;;;6217354;23;20071;-86
2022/04/14 18:23:34;;;;;;;15.38;9.32;;;;;;;;;;6190418;23;20339;-93
2022/04/14 18:26:00;;;;;;;12.07;6.10;;;;;;;;;;6217434;23;20004;-87
2022/04/14 18:28:25;;;;;;;13.20;7.55;;;;;;;;;;6217419;23;20012;-87
2022/04/14 18:30:51;;;;;;;12.95;6.35;;;;;;;;;;6217187;23;20000;-86
2022/04/14 18:33:17;;;;;;;14.15;6.70;;;;;;;;;;6216685;23;20001;-90
2022/04/14 18:35:42;;;;;;;10.45;5.45;;;;;;;;;;6217464;23;20000;-92
2022/04/14 18:38:08;;;;;;;9.13;5.85;;;;;;;;;;6190674;23;20340;-87
2022/04/14 18:40:33;;;;;;;11.98;6.10;;;;;;;;;;6217043;23;20004;-87
2022/04/14 18:42:59;;;;;;;11.13;6.50;;;;;;;;;;6217090;23;20001;-94
2022/04/14 18:45:25;;;;;;;9.85;5.35;;;;;;;;;;6186977;23;20016;-94
2022/04/14 18:47:50;;;;;;;9.95;6.15;;;;;;;;;;6187352;23;20001;-94
2022/04/14 18:50:16;;;;;;;9.98;5.68;;;;;;;;;;6186715;23;20063;-92
2022/04/14 18:52:42;;;;;;;9.00;5.28;;;;;;;;;;6187519;23;20001;-92
2022/04/14 18:55:08;;;;;;;8.38;5.18;;;;;;;;;;6185782;23;20088;-92
2022/04/14 18:57:35;;;;;;;10.77;5.13;;;;;;;;;;6186284;23;20420;-94
2022/04/14 19:00:02;;;;;;;9.23;5.15;;;;;;;;;;6186807;23;20131;-93
2022/04/14 19:02:28;;;;;;;7.82;5.45;;;;;;;;;;6187832;23;20124;-94
2022/04/14 19:04:54;;;;;;;8.63;5.53;;;;;;;;;;6186575;23;20092;-93
2022/04/14 19:07:19;;;;;;;11.07;6.07;;;;;;;;;;6186540;23;20036;-95
2022/04/14 19:09:45;;;;;;;10.35;6.00;;;;;;;;;;6187110;23;20015;-95
2022/04/14 19:12:10;;;;;;;11.70;6.03;;;;;;;;;;6188752;23;20008;-93
2022/04/14 19:14:36;;;;;;;11.27;6.22;;;;;;;;;;6187107;23;20013;-92
2022/04/14 19:17:02;;;;;;;8.35;5.35;;;;;;;;;;6189369;23;20012;-92
2022/04/14 19:19:28;;;;;;;10.27;6.22;;;;;;;;;;6186288;23;20056;-93
2022/04/14 19:21:53;;;;;;;8.65;5.47;;;;;;;;;;6186231;23;20016;-93
2022/04/14 19:24:19;;;;;;;10.68;5.65;;;;;;;;;;6185808;23;20012;-92
2022/04/14 19:26:44;;;;;;;11.25;6.22;;;;;;;;;;6187858;23;20000;-91
2022/04/14 19:29:11;;;;;;;13.23;6.00;;;;;;;;;;6185922;23;20091;-89
2022/04/14 19:31:36;;;;;;;10.00;6.13;;;;;;;;;;6187480;23;20028;-92
2022/04/14 19:34:02;;;;;;;13.40;7.13;;;;;;;;;;6186964;23;20412;-91
2022/04/14 19:36:29;;;;;;;10.32;6.43;;;;;;;;;;6187335;23;20005;-93
2022/04/14 19:38:55;;;;;;;10.45;5.85;;;;;;;;;;6186551;23;20001;-93
2022/04/14 19:41:20;;;;;;;10.77;5.75;;;;;;;;;;6186086;23;20032;-94
2022/04/14 19:43:46;;;;;;;12.35;6.50;;;;;;;;;;6186324;23;20009;-92
2022/04/14 19:46:11;;;;;;;12.10;6.10;;;;;;;;;;6198408;23;20095;-92
2022/04/14 19:48:37;;;;;;;13.02;6.03;;;;;;;;;;6190546;23;20046;-92
2022/04/14 19:51:04;;;;;;;9.65;5.97;;;;;;;;;;6190832;23;20075;-91
2022/04/14 19:53:30;;;;;;;11.50;5.70;;;;;;;;;;6190503;23;20008;-90
2022/04/14 19:55:58;;;;;;;10.20;6.75;;;;;;;;;;6190702;23;20032;-92
2022/04/14 19:58:23;;;;;;;13.32;6.95;;;;;;;;;;6190644;23;20011;-92
2022/04/14 20:31:51;;;;;;;9.05;5.53;;;;;;;;;;6139374;23;21312;-91
2022/04/14 20:34:17;;;;;;;12.10;6.25;;;;;;;;;;6219870;23;20300;-92
2022/04/14 20:36:42;;;;;;;10.65;6.28;;;;;;;;;;6221526;23;20019;-92
2022/04/14 20:39:08;;;;;;;11.15;6.13;;;;;;;;;;6221938;23;20000;-90
2022/04/14 20:41:34;;;;;;;13.55;6.97;;;;;;;;;;6215151;23;20009;-92
2022/04/14 20:44:00;;;;;;;11.90;7.00;;;;;;;;;;6192439;23;20032;-92
2022/04/14 20:46:25;;;;;;;10.98;6.28;;;;;;;;;;6191009;23;20309;-93
2022/04/14 20:48:51;;;;;;;9.43;5.75;;;;;;;;;;6217636;23;20032;-92
2022/04/14 20:51:16;;;;;;;12.18;6.50;;;;;;;;;;6191600;23;20328;-92
2022/04/14 20:53:42;;;;;;;8.60;5.20;;;;;;;;;;6218459;23;20075;-91
2022/04/14 20:56:07;;;;;;;10.10;6.47;;;;;;;;;;6219110;23;20001;-91
2022/04/14 20:58:33;;;;;;;10.95;6.05;;;;;;;;;;6191907;23;20011;-91
2022/04/14 21:00:58;;;;;;;10.95;6.07;;;;;;;;;;6192610;23;20317;-92
2022/04/14 21:03:24;;;;;;;9.40;5.43;;;;;;;;;;6217616;23;20036;-92
2022/04/14 21:05:49;;;;;;;9.82;5.53;;;;;;;;;;6217180;23;20012;-94
2022/04/14 21:08:15;;;;;;;10.70;6.03;;;;;;;;;;6191131;23;20059;-92
2022/04/14 21:10:40;;;;;;;12.57;6.57;;;;;;;;;;6190940;23;20011;-91
2022/04/14 21:13:07;;;;;;;10.48;6.18;;;;;;;;;;6216593;23;20369;-92
2022/04/14 21:15:33;;;;;;;10.63;6.68;;;;;;;;;;6218286;23;20005;-92
2022/04/14 21:17:58;;;;;;;11.90;6.22;;;;;;;;;;6191144;23;20004;-91
2022/04/14 21:20:25;;;;;;;9.88;6.13;;;;;;;;;;6191546;23;20005;-91
2022/04/14 21:22:52;;;;;;;13.70;6.30;;;;;;;;;;6190391;23;20041;-92
2022/04/14 21:25:17;;;;;;;10.98;6.35;;;;;;;;;;6190849;23;20020;-91
2022/04/14 21:27:42;;;;;;;12.00;6.35;;;;;;;;;;6218098;23;20012;-90
2022/04/14 21:30:09;;;;;;;11.32;6.10;;;;;;;;;;6193363;23;20360;-91
2022/04/14 21:32:35;;;;;;;11.50;6.47;;;;;;;;;;6219611;23;20008;-92
2022/04/14 21:35:00;;;;;;;11.15;7.18;;;;;;;;;;6192517;23;20009;-94
2022/04/14 21:37:26;;;;;;;11.93;6.90;;;;;;;;;;6193978;23;20331;-90
2022/04/14 21:39:51;;;;;;;12.10;6.22;;;;;;;;;;6192992;23;20428;-91
2022/04/14 21:42:17;;;;;;;10.60;5.88;;;;;;;;;;6219081;23;20007;-91
2022/04/14 21:44:42;;;;;;;13.75;6.00;;;;;;;;;;6219352;23;20004;-91
2022/04/14 21:47:08;;;;;;;11.50;6.00;;;;;;;;;;6193110;23;20019;-92
2022/04/14 21:49:34;;;;;;;11.02;6.28;;;;;;;;;;6192695;23;20079;-91
2022/04/14 21:51:59;;;;;;;15.77;7.30;;;;;;;;;;6219365;23;20297;-91
2022/04/14 21:54:25;;;;;;;12.07;6.25;;;;;;;;;;6192390;23;20008;-92
2022/04/14 21:56:50;;;;;;;11.63;6.63;;;;;;;;;;6192048;23;20439;-92
2022/04/14 21:59:16;;;;;;;13.77;7.50;;;;;;;;;;6219582;23;20007;-92
2022/04/14 22:01:44;;;;;;;10.90;6.72;;;;;;;;;;6218194;23;20394;-88
2022/04/14 22:04:10;;;;;;;10.57;5.70;;;;;;;;;;6194179;23;20020;-93
2022/04/14 22:06:36;;;;;;;11.73;5.60;;;;;;;;;;6194425;23;20005;-92
2022/04/14 22:09:02;;;;;;;10.68;5.97;;;;;;;;;;6192848;23;20004;-93
2022/04/14 22:11:27;;;;;;;13.73;6.32;;;;;;;;;;6192204;23;20380;-93
2022/04/14 22:13:53;;;;;;;13.10;6.47;;;;;;;;;;6218500;23;20005;-89
2022/04/14 22:16:20;;;;;;;10.20;5.45;;;;;;;;;;6191209;23;20015;-88
